.
WxDataArchive / Data Records for 2009-04-08
2009-04-07 April 2009 2009-04-09

Data Records for Wednesday, 08 April 2009

Time	Temp	Chill	HIndex	Humid	Dewpt	 Wind 	HiWind	WindDir	Rain 	Barom 
-----	----	-----	------	-----	-----	------	------	-------	-----	----- 
00:00	37.0	37.0	37.0	50	20.1	2	5	248	0.00	29.735 
00:05	36.9	36.9	36.9	51	20.5	1	3	248	0.00	29.732 
00:10	36.8	36.8	36.8	52	20.8	1	3	248	0.00	29.731 
00:15	36.6	36.6	36.6	53	21.1	2	6	248	0.00	29.731 
00:20	36.5	36.5	36.5	53	21.0	2	4	248	0.00	29.730 
00:25	36.3	36.3	36.3	54	21.3	1	3	248	0.00	29.732 
00:30	36.2	36.2	36.2	54	21.2	1	4	248	0.00	29.731 
00:35	36.0	36.0	36.0	54	21.0	1	6	248	0.00	29.730 
00:40	35.9	35.9	35.9	55	21.3	1	4	248	0.00	29.729 
00:45	35.9	35.9	35.9	55	21.3	2	5	248	0.00	29.729 
00:50	35.9	35.9	35.9	55	21.3	2	6	248	0.00	29.729 
00:55	35.9	35.9	35.9	56	21.8	1	5	248	0.00	29.729 
01:00	35.8	35.8	35.8	56	21.7	1	4	248	0.00	29.727 
01:05	35.6	35.6	35.6	56	21.5	2	4	248	0.00	29.727 
01:10	35.6	35.6	35.6	56	21.5	1	4	248	0.00	29.725 
01:15	35.5	35.5	35.5	57	21.8	1	4	248	0.00	29.724 
01:20	35.5	35.5	35.5	56	21.4	2	5	248	0.00	29.723 
01:25	35.5	35.5	35.5	56	21.4	1	6	248	0.00	29.721 
01:30	35.3	35.3	35.3	57	21.6	1	4	248	0.00	29.721 
01:35	35.2	35.2	35.2	57	21.5	1	3	248	0.00	29.720 
01:40	35.3	35.3	35.3	57	21.6	2	6	248	0.00	29.719 
01:45	35.2	35.2	35.2	57	21.5	2	5	248	0.00	29.718 
01:50	35.0	35.0	35.0	57	21.3	1	4	248	0.00	29.718 
01:55	34.9	34.9	34.9	58	21.6	2	5	248	0.00	29.718 
02:00	34.7	34.7	34.7	58	21.5	1	4	248	0.00	29.717 
02:05	34.6	34.6	34.6	59	21.8	2	5	248	0.00	29.715 
02:10	34.6	34.6	34.6	59	21.8	2	5	248	0.00	29.714 
02:15	34.4	34.4	34.4	60	22.0	2	6	248	0.00	29.713 
02:20	34.3	34.3	34.3	60	21.9	1	4	248	0.00	29.712 
02:25	34.1	34.1	34.1	61	22.1	1	2	248	0.00	29.710 
02:30	34.0	34.0	34.0	61	22.0	1	5	248	0.00	29.710 
02:35	33.8	33.8	33.8	62	22.2	0	2	248	0.00	29.708 
02:40	33.7	33.7	33.7	62	22.1	1	3	248	0.00	29.706 
02:45	33.7	33.7	33.7	62	22.1	1	4	270	0.00	29.706 
02:50	33.7	33.7	33.7	63	22.5	1	4	270	0.00	29.706 
02:55	33.7	33.7	33.7	63	22.5	1	5	248	0.00	29.707 
03:00	33.7	33.7	33.7	63	22.5	1	4	248	0.00	29.706 
03:05	33.5	33.5	33.5	64	22.6	1	4	248	0.00	29.706 
03:10	33.5	33.5	33.5	64	22.6	1	4	248	0.00	29.708 
03:15	33.2	33.2	33.2	65	22.7	0	3	248	0.00	29.704 
03:20	33.2	33.2	33.2	65	22.7	1	3	248	0.00	29.704 
03:25	33.2	33.2	33.2	65	22.7	1	3	248	0.00	29.703 
03:30	33.1	33.1	33.1	66	23.0	0	2	248	0.00	29.703 
03:35	32.9	32.9	32.9	66	22.8	1	3	248	0.00	29.702 
03:40	32.9	32.9	32.9	67	23.2	0	3	248	0.00	29.702 
03:45	32.8	32.8	32.8	67	23.1	1	2	248	0.00	29.704 
03:50	32.8	32.8	32.8	67	23.1	1	3	248	0.00	29.703 
03:55	32.8	32.8	32.8	68	23.4	1	3	270	0.00	29.707 
04:00	32.7	32.7	32.7	68	23.3	1	3	248	0.00	29.706 
04:05	32.7	32.7	32.7	68	23.3	1	3	248	0.00	29.709 
04:10	32.5	32.5	32.5	68	23.1	0	3	248	0.00	29.710 
04:15	32.5	32.5	32.5	69	23.5	1	3	248	0.00	29.708 
04:20	32.4	32.4	32.4	69	23.4	0	3	248	0.00	29.707 
04:25	32.4	32.4	32.4	69	23.4	2	5	248	0.00	29.711 
04:30	32.4	32.4	32.4	69	23.4	0	3	248	0.00	29.710 
04:35	32.2	32.2	32.2	70	23.5	1	2	248	0.00	29.712 
04:40	32.2	32.2	32.2	70	23.5	0	3	248	0.00	29.713 
04:45	32.1	32.1	32.1	70	23.4	1	3	248	0.00	29.715 
04:50	31.9	31.9	31.9	71	23.6	0	2	248	0.00	29.715 
04:55	31.8	31.8	31.8	71	23.5	0	1	248	0.00	29.716 
05:00	31.6	31.6	31.6	72	23.6	0	1	248	0.00	29.715 
05:05	31.5	31.5	31.5	72	23.5	0	2	248	0.00	29.715 
05:10	31.5	31.5	31.5	72	23.5	0	1	248	0.00	29.715 
05:15	31.5	31.5	31.5	73	23.9	0	2	248	0.00	29.715 
05:20	31.5	31.5	31.5	73	23.9	0	3	248	0.00	29.714 
05:25	31.5	31.5	31.5	73	23.9	0	2	248	0.00	29.715 
05:30	31.3	31.3	31.3	73	23.7	0	1	248	0.00	29.716 
05:35	31.2	31.2	31.2	74	23.9	0	1	248	0.00	29.716 
05:40	31.2	31.2	31.2	74	23.9	0	1	248	0.00	29.717 
05:45	31.0	31.0	31.0	74	23.7	0	2	248	0.00	29.717 
05:50	31.0	31.0	31.0	74	23.7	0	2	248	0.00	29.717 
05:55	31.0	31.0	31.0	74	23.7	0	2	248	0.00	29.718 
06:00	30.9	30.9	30.9	75	23.9	0	2	248	0.00	29.718 
06:05	30.9	30.9	30.9	75	23.9	0	1	248	0.00	29.719 
06:10	30.7	30.7	30.7	75	23.7	0	2	248	0.00	29.720 
06:15	30.7	30.7	30.7	76	24.0	0	1	248	0.00	29.723 
06:20	30.7	30.7	30.7	76	24.0	0	2	248	0.00	29.725 
06:25	30.7	30.7	30.7	76	24.0	0	1	248	0.00	29.725 
06:30	30.7	30.7	30.7	76	24.0	1	3	248	0.00	29.729 
06:35	30.7	30.7	30.7	76	24.0	0	2	248	0.00	29.730 
06:40	30.9	30.9	30.9	76	24.2	1	3	248	0.00	29.732 
06:45	31.0	31.0	31.0	76	24.3	1	3	248	0.00	29.733 
06:50	31.3	31.3	31.3	76	24.6	0	2	248	0.00	29.732 
06:55	31.5	31.5	31.5	76	24.8	0	2	248	0.00	29.733 
07:00	31.8	31.8	31.8	75	24.8	1	3	248	0.00	29.733 
07:05	32.2	32.2	32.2	75	25.2	1	3	248	0.00	29.733 
07:10	32.7	32.7	32.7	74	25.3	1	4	248	0.00	29.734 
07:15	32.9	32.9	32.9	73	25.2	1	3	248	0.00	29.737 
07:20	33.4	33.4	33.4	72	25.4	1	4	248	0.00	29.739 
07:25	33.8	33.8	33.8	71	25.4	1	6	248	0.00	29.739 
07:30	34.3	34.3	34.3	70	25.5	2	4	248	0.00	29.740 
07:35	34.6	34.6	34.6	70	25.8	1	6	248	0.00	29.743 
07:40	35.2	35.2	35.2	68	25.7	1	5	248	0.00	29.743 
07:45	35.8	35.8	35.8	69	26.6	0	2	248	0.00	29.743 
07:50	36.2	36.2	36.2	67	26.3	1	4	248	0.00	29.744 
07:55	36.6	36.6	36.6	67	26.7	1	4	270	0.00	29.743 
08:00	37.0	37.0	37.0	65	26.3	1	2	270	0.00	29.742 
08:05	37.0	37.0	37.0	64	26.0	1	4	248	0.00	29.742 
08:10	37.2	37.2	37.2	63	25.8	2	5	248	0.00	29.743 
08:15	37.5	37.5	37.5	63	26.1	2	5	248	0.00	29.744 
08:20	38.0	38.0	38.0	63	26.5	1	4	248	0.00	29.744 
08:25	38.5	38.5	38.5	62	26.6	1	4	248	0.00	29.744 
08:30	38.6	38.6	38.6	61	26.3	2	7	270	0.00	29.742 
08:35	38.9	38.9	38.9	62	27.0	2	7	292	0.00	29.743 
08:40	39.2	39.2	39.2	60	26.5	2	5	248	0.00	29.743 
08:45	39.5	39.5	39.5	61	27.2	1	4	248	0.00	29.743 
08:50	39.9	39.9	39.9	60	27.2	1	3	248	0.00	29.744 
08:55	40.2	40.2	40.2	59	27.0	1	4	248	0.00	29.743 
09:00	40.3	40.3	40.3	59	27.1	2	5	248	0.00	29.744 
09:05	40.6	40.6	40.6	58	27.0	2	6	248	0.00	29.742 
09:10	41.1	41.1	41.1	58	27.5	1	6	248	0.00	29.742 
09:15	41.2	41.2	41.2	56	26.7	2	5	248	0.00	29.742 
09:20	41.5	41.5	41.5	57	27.4	2	6	270	0.00	29.743 
09:25	42.1	42.1	42.1	58	28.4	1	4	292	0.00	29.743 
09:30	42.6	42.6	42.6	54	27.1	2	6	248	0.00	29.742 
09:35	43.1	43.1	43.1	56	28.5	1	3	248	0.00	29.742 
09:40	43.3	43.3	43.3	55	28.2	2	5	248	0.00	29.742 
09:45	43.6	43.6	43.6	51	26.7	2	6	248	0.00	29.743 
09:50	43.9	43.9	43.9	49	26.0	2	6	248	0.00	29.745 
09:55	44.2	44.2	44.2	47	25.3	1	3	248	0.00	29.745 
10:00	44.3	44.3	44.3	43	23.2	2	5	248	0.00	29.745 
10:05	44.9	44.9	44.9	42	23.2	2	5	248	0.00	29.744 
10:10	45.5	45.5	45.5	47	26.5	2	4	248	0.00	29.742 
10:15	46.0	46.0	46.0	43	24.8	1	5	248	0.00	29.742 
10:20	46.2	46.2	46.2	43	25.0	1	4	248	0.00	29.742 
10:25	46.2	46.2	46.2	36	20.7	1	4	248	0.00	29.741 
10:30	46.5	46.5	46.5	33	19.0	2	5	248	0.00	29.740 
10:35	47.6	47.6	47.6	33	19.9	1	6	270	0.00	29.738 
10:40	48.0	48.0	48.0	32	19.6	2	7	248	0.00	29.737 
10:45	48.2	48.2	48.2	32	19.7	1	5	338	0.00	29.736 
10:50	48.0	48.0	48.0	31	18.8	3	6	248	0.00	29.737 
10:55	48.0	48.0	48.0	27	15.6	2	10	248	0.00	29.738 
11:00	48.2	48.2	48.2	33	20.5	2	5	248	0.00	29.737 
11:05	48.2	48.2	48.2	27	15.8	2	5	248	0.00	29.740 
11:10	48.5	48.5	48.5	34	21.4	2	4	248	0.00	29.739 
11:15	49.1	49.1	49.1	28	17.4	1	5	248	0.00	29.736 
11:20	49.2	49.2	49.2	28	17.5	3	11	248	0.00	29.736 
11:25	49.5	49.5	49.5	32	20.9	2	4	270	0.00	29.736 
11:30	49.8	49.8	49.8	31	20.4	2	7	270	0.00	29.736 
11:35	49.8	49.8	49.8	27	17.2	3	7	248	0.00	29.736 
11:40	49.9	49.9	49.9	27	17.3	1	4	270	0.00	29.733 
11:45	50.1	50.1	50.1	28	18.3	3	6	270	0.00	29.734 
11:50	50.2	50.2	50.2	28	18.4	2	6	248	0.00	29.733 
11:55	50.4	50.4	50.4	28	18.5	2	5	248	0.00	29.730 
12:00	50.8	50.8	50.8	27	18.0	2	6	270	0.00	29.725 
12:05	51.0	51.0	51.0	26	17.3	2	6	270	0.00	29.728 
12:10	51.3	51.3	51.3	28	19.3	2	7	270	0.00	29.729 
12:15	51.1	51.1	51.1	28	19.1	2	5	338	0.00	29.725 
12:20	51.1	51.1	51.1	25	16.5	3	6	270	0.00	29.725 
12:25	51.3	51.3	51.3	24	15.8	3	9	270	0.00	29.725 
12:30	51.1	51.1	51.1	28	19.1	2	7	248	0.00	29.724 
12:35	51.7	51.7	51.7	25	17.0	2	6	248	0.00	29.723 
12:40	51.7	51.7	51.7	24	16.1	2	7	248	0.00	29.721 
12:45	51.6	51.6	51.6	25	16.9	4	9	270	0.00	29.723 
12:50	51.6	51.6	51.6	26	17.9	2	7	248	0.00	29.721 
12:55	51.7	51.7	51.7	27	18.8	4	9	248	0.00	29.720 
13:00	51.7	51.7	51.7	28	19.7	3	7	248	0.00	29.721 
13:05	51.7	51.7	51.7	26	17.9	3	9	270	0.00	29.721 
13:10	52.0	52.0	52.0	28	19.9	2	6	270	0.00	29.722 
13:15	52.3	52.3	52.3	27	19.3	2	5	248	0.00	29.720 
13:20	52.2	52.2	52.2	27	19.2	3	13	270	0.00	29.720 
13:25	52.3	52.3	52.3	29	21.0	4	6	270	0.00	29.720 
13:30	52.3	52.3	52.3	28	20.2	3	9	248	0.00	29.720 
13:35	52.2	52.2	52.2	29	20.9	1	4	315	0.00	29.719 
13:40	51.6	51.6	51.6	28	19.6	2	5	248	0.00	29.719 
13:45	51.7	51.7	51.7	28	19.7	3	6	270	0.00	29.719 
13:50	51.4	51.4	51.4	29	20.2	4	9	248	0.00	29.718 
13:55	52.0	52.0	52.0	28	19.9	3	9	248	0.00	29.717 
14:00	52.9	52.9	52.9	28	20.7	3	11	248	0.00	29.716 
14:05	52.8	52.8	52.8	27	19.8	4	11	270	0.00	29.714 
14:10	52.5	52.5	52.5	26	18.6	4	8	270	0.00	29.715 
14:15	52.9	52.9	52.9	25	18.1	4	11	270	0.00	29.715 
14:20	52.8	52.8	52.8	24	17.0	3	6	270	0.00	29.715 
14:25	53.1	53.1	53.1	27	20.0	2	4	248	0.00	29.712 
14:30	53.3	53.3	53.3	25	18.4	3	11	248	0.00	29.707 
14:35	53.1	53.1	53.1	26	19.1	3	6	270	0.00	29.711 
14:40	53.5	53.5	53.5	27	20.4	3	9	270	0.00	29.710 
14:45	53.5	53.5	53.5	25	18.6	3	8	270	0.00	29.708 
14:50	53.3	53.3	53.3	25	18.4	3	9	270	0.00	29.709 
14:55	52.2	52.2	52.2	26	18.4	4	11	248	0.00	29.706 
15:00	51.9	51.9	51.9	29	20.7	3	11	248	0.00	29.705 
15:05	52.0	52.0	52.0	30	21.5	3	7	270	0.00	29.708 
15:10	52.3	52.3	52.3	28	20.2	3	6	270	0.00	29.707 
15:15	53.2	53.2	53.2	27	20.1	4	10	270	0.00	29.705 
15:20	52.9	52.9	52.9	27	19.8	2	5	270	0.00	29.705 
15:25	52.9	52.9	52.9	26	19.0	2	5	248	0.00	29.705 
15:30	52.5	52.5	52.5	27	19.5	2	5	248	0.00	29.703 
15:35	52.6	52.6	52.6	27	19.6	3	7	270	0.00	29.704 
15:40	52.5	52.5	52.5	28	20.4	3	10	248	0.00	29.705 
15:45	52.8	52.8	52.8	26	18.9	2	4	270	0.00	29.703 
15:50	52.8	52.8	52.8	28	20.6	2	5	248	0.00	29.702 
15:55	53.3	53.3	53.3	28	21.0	4	10	248	0.00	29.700 
16:00	53.3	53.3	53.3	27	20.2	3	9	270	0.00	29.701 
16:05	52.2	52.2	52.2	26	18.4	3	7	248	0.00	29.702 
16:10	52.2	52.2	52.2	28	20.1	2	6	248	0.00	29.701 
16:15	52.9	52.9	52.9	28	20.7	3	9	270	0.00	29.702 
16:20	53.3	53.3	53.3	27	20.2	2	7	270	0.00	29.702 
16:25	53.3	53.3	53.3	26	19.3	3	7	270	0.00	29.702 
16:30	52.5	52.5	52.5	26	18.6	3	9	248	0.00	29.706 
16:35	51.7	51.7	51.7	27	18.8	2	7	248	0.00	29.707 
16:40	51.6	51.6	51.6	28	19.6	1	4	270	0.00	29.709 
16:45	52.0	52.0	52.0	28	19.9	2	5	248	0.00	29.707 
16:50	51.7	51.7	51.7	27	18.8	3	6	292	0.00	29.709 
16:55	51.6	51.6	51.6	28	19.6	2	5	270	0.00	29.712 
17:00	51.9	51.9	51.9	27	19.0	2	6	248	0.00	29.713 
17:05	51.6	51.6	51.6	28	19.6	2	6	248	0.00	29.717 
17:10	51.0	51.0	51.0	28	19.1	2	5	248	0.00	29.718 
17:15	50.5	50.5	50.5	29	19.4	1	3	338	0.00	29.718 
17:20	50.8	50.8	50.8	27	18.0	3	7	270	0.00	29.717 
17:25	51.0	51.0	51.0	28	19.1	3	5	270	0.00	29.719 
17:30	50.7	50.7	50.7	28	18.8	3	7	270	0.00	29.721 
17:35	50.2	50.2	50.2	30	20.0	2	7	315	0.00	29.724 
17:40	50.1	50.1	50.1	29	19.1	2	6	292	0.00	29.725 
17:45	49.9	49.9	49.9	30	19.7	1	2	270	0.00	29.725 
17:50	50.2	50.2	50.2	28	18.4	1	4	270	0.00	29.726 
17:55	50.2	50.2	50.2	29	19.2	2	4	270	0.00	29.726 
18:00	50.2	50.2	50.2	29	19.2	1	5	270	0.00	29.726 
18:05	50.1	50.1	50.1	28	18.3	2	5	248	0.00	29.724 
18:10	49.9	49.9	49.9	29	18.9	1	6	270	0.00	29.724 
18:15	49.8	49.8	49.8	29	18.8	1	5	270	0.00	29.725 
18:20	49.9	49.9	49.9	28	18.1	1	4	315	0.00	29.726 
18:25	50.1	50.1	50.1	27	17.4	1	5	248	0.00	29.725 
18:30	50.1	50.1	50.1	28	18.3	1	3	270	0.00	29.726 
18:35	49.9	49.9	49.9	28	18.1	2	5	270	0.00	29.726 
18:40	49.6	49.6	49.6	28	17.9	0	2	270	0.00	29.726 
18:45	49.5	49.5	49.5	27	16.9	1	3	270	0.00	29.727 
18:50	49.1	49.1	49.1	27	16.6	1	5	270	0.00	29.729 
18:55	48.8	48.8	48.8	28	17.2	1	3	270	0.00	29.728 
19:00	48.5	48.5	48.5	30	18.5	0	3	270	0.00	29.728 
19:05	48.2	48.2	48.2	29	17.5	0	1	270	0.00	29.725 
19:10	48.0	48.0	48.0	31	18.8	0	1	270	0.00	29.727 
19:15	47.7	47.7	47.7	31	18.6	0	1	270	0.00	29.729 
19:20	47.4	47.4	47.4	32	19.0	0	1	270	0.00	29.730 
19:25	47.0	47.0	47.0	33	19.4	0	1	270	0.00	29.733 
19:30	46.8	46.8	46.8	34	19.9	1	3	270	0.00	29.736 
19:35	46.8	46.8	46.8	34	19.9	0	1	270	0.00	29.737 
19:40	46.7	46.7	46.7	35	20.5	0	2	270	0.00	29.738 
19:45	46.4	46.4	46.4	35	20.3	0	1	270	0.00	29.738 
19:50	46.2	46.2	46.2	36	20.7	0	1	270	0.00	29.740 
19:55	46.0	46.0	46.0	37	21.2	0	1	270	0.00	29.740 
20:00	45.7	45.7	45.7	38	21.6	0	1	270	0.00	29.744 
20:05	45.5	45.5	45.5	39	22.0	0	1	270	0.00	29.743 
20:10	45.2	45.2	45.2	39	21.7	0	1	270	0.00	29.748 
20:15	45.1	45.1	45.1	41	22.8	0	2	270	0.00	29.752 
20:20	45.1	45.1	45.1	42	23.4	0	1	270	0.00	29.753 
20:25	45.1	45.1	45.1	42	23.4	0	1	270	0.00	29.754 
20:30	45.2	45.2	45.2	43	24.0	0	2	248	0.00	29.754 
20:35	45.2	45.2	45.2	43	24.0	0	1	248	0.00	29.755 
20:40	45.4	45.4	45.4	43	24.2	0	2	248	0.00	29.757 
20:45	45.4	45.4	45.4	44	24.8	0	1	248	0.00	29.759 
20:50	45.4	45.4	45.4	45	25.3	0	1	248	0.00	29.758 
20:55	45.2	45.2	45.2	44	24.6	1	4	248	0.00	29.760 
21:00	45.4	45.4	45.4	44	24.8	1	3	225	0.00	29.762 
21:05	45.2	45.2	45.2	45	25.1	0	2	225	0.00	29.762 
21:10	44.9	44.9	44.9	46	25.4	0	1	225	0.00	29.763 
21:15	44.6	44.6	44.6	46	25.1	0	1	225	0.00	29.764 
21:20	44.3	44.3	44.3	46	24.8	0	1	225	0.00	29.765 
21:25	44.1	44.1	44.1	47	25.2	0	1	225	0.00	29.766 
21:30	43.8	43.8	43.8	48	25.4	0	1	225	0.00	29.767 
21:35	43.2	43.2	43.2	48	24.9	0	0	---	0.00	29.768 
21:40	42.6	42.6	42.6	50	25.3	0	0	---	0.00	29.772 
21:45	42.1	42.1	42.1	50	24.8	0	0	---	0.00	29.774 
21:50	41.6	41.6	41.6	51	24.8	0	0	---	0.00	29.774 
21:55	41.1	41.1	41.1	52	24.8	0	0	---	0.00	29.776 
22:00	40.5	40.5	40.5	53	24.7	0	0	---	0.00	29.778 
22:05	39.8	39.8	39.8	55	25.0	0	0	---	0.00	29.774 
22:10	39.2	39.2	39.2	56	24.8	0	0	---	0.00	29.773 
22:15	38.8	38.8	38.8	58	25.3	0	0	---	0.00	29.774 
22:20	38.3	38.3	38.3	58	24.8	0	0	---	0.00	29.777 
22:25	38.0	38.0	38.0	59	25.0	0	0	---	0.00	29.776 
22:30	37.8	37.8	37.8	61	25.6	0	0	---	0.00	29.777 
22:35	37.3	37.3	37.3	62	25.5	0	0	---	0.00	29.779 
22:40	36.9	36.9	36.9	62	25.1	0	0	---	0.00	29.782 
22:45	36.5	36.5	36.5	63	25.1	0	0	---	0.00	29.782 
22:50	36.2	36.2	36.2	64	25.2	0	0	---	0.00	29.783 
22:55	35.9	35.9	35.9	65	25.3	0	0	---	0.00	29.783 
23:00	35.8	35.8	35.8	66	25.6	0	0	---	0.00	29.784 
23:05	35.6	35.6	35.6	66	25.4	0	0	---	0.00	29.782 
23:10	35.3	35.3	35.3	67	25.5	0	0	---	0.00	29.782 
23:15	35.0	35.0	35.0	67	25.2	0	0	---	0.00	29.783 
23:20	34.9	34.9	34.9	68	25.4	0	0	---	0.00	29.783 
23:25	34.6	34.6	34.6	69	25.5	0	0	---	0.00	29.784 
23:30	34.4	34.4	34.4	69	25.3	0	0	---	0.00	29.786 
23:35	34.1	34.1	34.1	70	25.4	0	0	---	0.00	29.786 
23:40	34.0	34.0	34.0	71	25.6	0	0	---	0.00	29.786 
23:45	33.8	33.8	33.8	71	25.4	0	0	---	0.00	29.789 
23:50	33.7	33.7	33.7	72	25.7	0	0	---	0.00	29.787 
23:55	33.5	33.5	33.5	72	25.5	0	0	---	0.00	29.788 

CoCoRaHS
IN-AL-39
A2 Web Hosting
Creative Commons License
GoDaddy
search engine by freefind advanced

loaded 2018-11-15 05:40:23 • last modified 2010-11-18 10:43:29
Privacy PolicyDisclaimer
• wx.awcolley.com is powered by PmWiki v.2002016 •
• all content (unless otherwise noted) © 2018 A W Colley